sensor_id;sensor_type;location;lat;lon;timestamp;P1;durP1;ratioP1;P2;durP2;ratioP2
17024;SDS011;8629;42.496;25.620;2023-04-03T00:00:04;1.20;;;1.10;;
17024;SDS011;8629;42.496;25.620;2023-04-03T00:02:33;2.67;;;1.10;;
17024;SDS011;8629;42.496;25.620;2023-04-03T00:05:00;0.80;;;0.80;;
17024;SDS011;8629;42.496;25.620;2023-04-03T00:07:26;1.20;;;1.10;;
17024;SDS011;8629;42.496;25.620;2023-04-03T00:09:53;1.03;;;0.90;;
17024;SDS011;8629;42.496;25.620;2023-04-03T00:12:21;0.80;;;0.80;;
17024;SDS011;8629;42.496;25.620;2023-04-03T00:14:48;0.87;;;0.87;;
17024;SDS011;8629;42.496;25.620;2023-04-03T00:17:15;0.80;;;0.80;;
17024;SDS011;8629;42.496;25.620;2023-04-03T00:19:42;0.80;;;0.80;;
17024;SDS011;8629;42.496;25.620;2023-04-03T00:22:08;0.87;;;0.87;;
17024;SDS011;8629;42.496;25.620;2023-04-03T00:24:35;0.90;;;0.90;;
17024;SDS011;8629;42.496;25.620;2023-04-03T00:27:02;0.93;;;0.90;;
17024;SDS011;8629;42.496;25.620;2023-04-03T00:29:30;0.80;;;0.80;;
17024;SDS011;8629;42.496;25.620;2023-04-03T00:31:56;1.40;;;0.90;;
17024;SDS011;8629;42.496;25.620;2023-04-03T00:34:23;5.80;;;1.63;;
17024;SDS011;8629;42.496;25.620;2023-04-03T00:36:51;1.40;;;1.30;;
17024;SDS011;8629;42.496;25.620;2023-04-03T00:39:18;2.90;;;0.97;;
17024;SDS011;8629;42.496;25.620;2023-04-03T00:41:44;0.93;;;0.93;;
17024;SDS011;8629;42.496;25.620;2023-04-03T00:44:21;1.33;;;1.27;;
17024;SDS011;8629;42.496;25.620;2023-04-03T00:46:49;1.27;;;0.90;;
17024;SDS011;8629;42.496;25.620;2023-04-03T00:49:16;1.10;;;1.10;;
17024;SDS011;8629;42.496;25.620;2023-04-03T00:51:43;1.03;;;1.03;;
17024;SDS011;8629;42.496;25.620;2023-04-03T00:54:10;1.20;;;1.10;;
17024;SDS011;8629;42.496;25.620;2023-04-03T00:56:36;1.07;;;1.03;;
17024;SDS011;8629;42.496;25.620;2023-04-03T00:59:04;0.87;;;0.87;;
17024;SDS011;8629;42.496;25.620;2023-04-03T01:01:33;1.30;;;1.00;;
17024;SDS011;8629;42.496;25.620;2023-04-03T01:04:02;1.40;;;1.30;;
17024;SDS011;8629;42.496;25.620;2023-04-03T01:06:32;0.93;;;0.83;;
17024;SDS011;8629;42.496;25.620;2023-04-03T01:09:00;1.33;;;1.23;;
17024;SDS011;8629;42.496;25.620;2023-04-03T01:11:27;0.90;;;0.90;;
17024;SDS011;8629;42.496;25.620;2023-04-03T01:13:54;0.90;;;0.90;;
17024;SDS011;8629;42.496;25.620;2023-04-03T01:16:20;1.33;;;1.23;;
17024;SDS011;8629;42.496;25.620;2023-04-03T01:18:47;0.80;;;0.80;;
17024;SDS011;8629;42.496;25.620;2023-04-03T01:21:29;2.37;;;1.00;;
17024;SDS011;8629;42.496;25.620;2023-04-03T01:24:11;1.30;;;1.20;;
17024;SDS011;8629;42.496;25.620;2023-04-03T01:26:55;0.93;;;0.93;;
17024;SDS011;8629;42.496;25.620;2023-04-03T01:29:22;0.80;;;0.80;;
17024;SDS011;8629;42.496;25.620;2023-04-03T01:31:51;0.90;;;0.90;;
17024;SDS011;8629;42.496;25.620;2023-04-03T01:34:19;1.00;;;1.00;;
17024;SDS011;8629;42.496;25.620;2023-04-03T01:36:46;1.57;;;1.20;;
17024;SDS011;8629;42.496;25.620;2023-04-03T01:39:13;1.63;;;1.07;;
17024;SDS011;8629;42.496;25.620;2023-04-03T01:41:40;0.80;;;0.80;;
17024;SDS011;8629;42.496;25.620;2023-04-03T01:44:07;1.30;;;1.20;;
17024;SDS011;8629;42.496;25.620;2023-04-03T01:46:34;0.90;;;0.90;;
17024;SDS011;8629;42.496;25.620;2023-04-03T01:49:04;0.93;;;0.93;;
17024;SDS011;8629;42.496;25.620;2023-04-03T01:51:31;1.10;;;1.10;;
17024;SDS011;8629;42.496;25.620;2023-04-03T01:53:58;1.20;;;1.10;;
17024;SDS011;8629;42.496;25.620;2023-04-03T01:56:24;1.33;;;0.90;;
17024;SDS011;8629;42.496;25.620;2023-04-03T01:58:51;0.80;;;0.80;;
17024;SDS011;8629;42.496;25.620;2023-04-03T02:01:18;1.20;;;1.20;;
17024;SDS011;8629;42.496;25.620;2023-04-03T02:03:46;1.70;;;1.60;;
17024;SDS011;8629;42.496;25.620;2023-04-03T02:06:14;1.10;;;1.00;;
17024;SDS011;8629;42.496;25.620;2023-04-03T02:08:41;1.40;;;0.90;;
17024;SDS011;8629;42.496;25.620;2023-04-03T02:11:07;1.30;;;1.20;;
17024;SDS011;8629;42.496;25.620;2023-04-03T02:13:34;0.83;;;0.83;;
17024;SDS011;8629;42.496;25.620;2023-04-03T02:16:05;0.93;;;0.93;;
17024;SDS011;8629;42.496;25.620;2023-04-03T02:18:33;1.27;;;1.17;;
17024;SDS011;8629;42.496;25.620;2023-04-03T02:20:59;0.73;;;0.73;;
17024;SDS011;8629;42.496;25.620;2023-04-03T02:23:28;0.90;;;0.90;;
17024;SDS011;8629;42.496;25.620;2023-04-03T02:26:02;1.07;;;1.00;;
17024;SDS011;8629;42.496;25.620;2023-04-03T02:28:29;1.13;;;1.07;;
17024;SDS011;8629;42.496;25.620;2023-04-03T02:30:56;0.83;;;0.83;;
17024;SDS011;8629;42.496;25.620;2023-04-03T02:33:23;1.87;;;1.50;;
17024;SDS011;8629;42.496;25.620;2023-04-03T02:35:52;0.90;;;0.90;;
17024;SDS011;8629;42.496;25.620;2023-04-03T02:38:19;1.03;;;1.03;;
17024;SDS011;8629;42.496;25.620;2023-04-03T02:40:47;1.00;;;1.00;;
17024;SDS011;8629;42.496;25.620;2023-04-03T02:43:13;2.13;;;1.93;;
17024;SDS011;8629;42.496;25.620;2023-04-03T02:45:40;2.13;;;1.60;;
17024;SDS011;8629;42.496;25.620;2023-04-03T02:48:07;2.07;;;1.60;;
17024;SDS011;8629;42.496;25.620;2023-04-03T02:50:34;1.83;;;1.73;;
17024;SDS011;8629;42.496;25.620;2023-04-03T02:53:01;1.93;;;1.77;;
17024;SDS011;8629;42.496;25.620;2023-04-03T02:55:27;2.00;;;1.80;;
17024;SDS011;8629;42.496;25.620;2023-04-03T02:57:55;2.10;;;1.77;;
17024;SDS011;8629;42.496;25.620;2023-04-03T03:00:22;2.70;;;2.03;;
17024;SDS011;8629;42.496;25.620;2023-04-03T03:02:49;1.63;;;1.50;;
17024;SDS011;8629;42.496;25.620;2023-04-03T03:05:16;2.63;;;1.63;;
17024;SDS011;8629;42.496;25.620;2023-04-03T03:07:42;2.40;;;2.20;;
17024;SDS011;8629;42.496;25.620;2023-04-03T03:10:09;2.70;;;1.90;;
17024;SDS011;8629;42.496;25.620;2023-04-03T03:12:36;2.03;;;1.83;;
17024;SDS011;8629;42.496;25.620;2023-04-03T03:15:05;1.80;;;1.70;;
17024;SDS011;8629;42.496;25.620;2023-04-03T03:17:32;1.70;;;1.60;;
17024;SDS011;8629;42.496;25.620;2023-04-03T03:19:59;1.33;;;1.23;;
17024;SDS011;8629;42.496;25.620;2023-04-03T03:22:25;1.50;;;1.40;;
17024;SDS011;8629;42.496;25.620;2023-04-03T03:24:52;1.10;;;1.10;;
17024;SDS011;8629;42.496;25.620;2023-04-03T03:27:19;1.10;;;1.00;;
17024;SDS011;8629;42.496;25.620;2023-04-03T03:29:46;1.10;;;1.10;;
17024;SDS011;8629;42.496;25.620;2023-04-03T03:32:14;1.60;;;1.00;;
17024;SDS011;8629;42.496;25.620;2023-04-03T03:34:42;1.10;;;1.10;;
17024;SDS011;8629;42.496;25.620;2023-04-03T03:37:08;0.93;;;0.93;;
17024;SDS011;8629;42.496;25.620;2023-04-03T03:39:35;3.10;;;1.23;;
17024;SDS011;8629;42.496;25.620;2023-04-03T03:42:02;1.00;;;1.00;;
17024;SDS011;8629;42.496;25.620;2023-04-03T03:44:29;1.30;;;1.20;;
17024;SDS011;8629;42.496;25.620;2023-04-03T03:46:56;1.30;;;1.20;;
17024;SDS011;8629;42.496;25.620;2023-04-03T03:49:24;1.83;;;1.00;;
17024;SDS011;8629;42.496;25.620;2023-04-03T03:51:51;0.90;;;0.90;;
17024;SDS011;8629;42.496;25.620;2023-04-03T03:54:17;0.93;;;0.93;;
17024;SDS011;8629;42.496;25.620;2023-04-03T03:56:44;1.13;;;1.07;;
17024;SDS011;8629;42.496;25.620;2023-04-03T03:59:11;1.77;;;1.37;;
17024;SDS011;8629;42.496;25.620;2023-04-03T04:01:38;2.00;;;1.80;;
17024;SDS011;8629;42.496;25.620;2023-04-03T04:04:04;7.83;;;6.27;;
17024;SDS011;8629;42.496;25.620;2023-04-03T04:06:33;3.07;;;2.77;;
17024;SDS011;8629;42.496;25.620;2023-04-03T04:08:59;1.27;;;1.17;;
17024;SDS011;8629;42.496;25.620;2023-04-03T04:11:26;1.00;;;0.90;;
17024;SDS011;8629;42.496;25.620;2023-04-03T04:13:53;0.90;;;0.90;;
17024;SDS011;8629;42.496;25.620;2023-04-03T04:16:20;0.87;;;0.87;;
17024;SDS011;8629;42.496;25.620;2023-04-03T04:18:46;1.10;;;1.00;;
17024;SDS011;8629;42.496;25.620;2023-04-03T04:21:13;1.00;;;1.00;;
17024;SDS011;8629;42.496;25.620;2023-04-03T04:23:41;1.00;;;1.00;;
17024;SDS011;8629;42.496;25.620;2023-04-03T04:26:08;3.77;;;3.10;;
17024;SDS011;8629;42.496;25.620;2023-04-03T04:28:35;3.07;;;2.60;;
17024;SDS011;8629;42.496;25.620;2023-04-03T04:31:02;3.40;;;2.40;;
17024;SDS011;8629;42.496;25.620;2023-04-03T04:33:28;2.10;;;1.57;;
17024;SDS011;8629;42.496;25.620;2023-04-03T04:35:55;1.60;;;1.50;;
17024;SDS011;8629;42.496;25.620;2023-04-03T04:38:22;1.87;;;1.73;;
17024;SDS011;8629;42.496;25.620;2023-04-03T04:40:53;1.90;;;1.70;;
17024;SDS011;8629;42.496;25.620;2023-04-03T04:43:22;2.47;;;2.00;;
17024;SDS011;8629;42.496;25.620;2023-04-03T04:45:59;2.70;;;1.97;;
17024;SDS011;8629;42.496;25.620;2023-04-03T04:48:26;4.90;;;3.63;;
17024;SDS011;8629;42.496;25.620;2023-04-03T04:50:53;3.03;;;2.73;;
17024;SDS011;8629;42.496;25.620;2023-04-03T04:53:20;2.83;;;2.10;;
17024;SDS011;8629;42.496;25.620;2023-04-03T04:55:46;1.77;;;1.67;;
17024;SDS011;8629;42.496;25.620;2023-04-03T04:58:15;1.60;;;1.50;;
17024;SDS011;8629;42.496;25.620;2023-04-03T05:00:42;1.77;;;1.60;;
17024;SDS011;8629;42.496;25.620;2023-04-03T05:03:08;2.73;;;1.50;;
17024;SDS011;8629;42.496;25.620;2023-04-03T05:05:36;1.23;;;1.13;;
17024;SDS011;8629;42.496;25.620;2023-04-03T05:08:03;1.20;;;1.20;;
17024;SDS011;8629;42.496;25.620;2023-04-03T05:10:30;4.07;;;1.23;;
17024;SDS011;8629;42.496;25.620;2023-04-03T05:12:57;1.33;;;1.23;;
17024;SDS011;8629;42.496;25.620;2023-04-03T05:15:26;1.43;;;1.20;;
17024;SDS011;8629;42.496;25.620;2023-04-03T05:17:52;4.30;;;3.90;;
17024;SDS011;8629;42.496;25.620;2023-04-03T05:20:19;2.60;;;2.40;;
17024;SDS011;8629;42.496;25.620;2023-04-03T05:22:46;2.00;;;1.83;;
17024;SDS011;8629;42.496;25.620;2023-04-03T05:25:12;2.70;;;2.50;;
17024;SDS011;8629;42.496;25.620;2023-04-03T05:27:39;5.80;;;5.20;;
17024;SDS011;8629;42.496;25.620;2023-04-03T05:30:06;3.67;;;3.37;;
17024;SDS011;8629;42.496;25.620;2023-04-03T05:32:35;2.67;;;2.47;;
17024;SDS011;8629;42.496;25.620;2023-04-03T05:35:02;2.83;;;2.63;;
17024;SDS011;8629;42.496;25.620;2023-04-03T05:37:29;6.37;;;5.63;;
17024;SDS011;8629;42.496;25.620;2023-04-03T05:39:56;12.37;;;11.07;;
17024;SDS011;8629;42.496;25.620;2023-04-03T05:42:22;5.53;;;4.80;;
17024;SDS011;8629;42.496;25.620;2023-04-03T05:44:49;7.00;;;3.83;;
17024;SDS011;8629;42.496;25.620;2023-04-03T05:47:16;2.30;;;2.10;;
17024;SDS011;8629;42.496;25.620;2023-04-03T05:49:44;2.70;;;2.50;;
17024;SDS011;8629;42.496;25.620;2023-04-03T05:52:12;2.70;;;2.50;;
17024;SDS011;8629;42.496;25.620;2023-04-03T05:54:45;2.63;;;2.43;;
17024;SDS011;8629;42.496;25.620;2023-04-03T05:57:13;3.90;;;2.20;;
17024;SDS011;8629;42.496;25.620;2023-04-03T05:59:41;10.37;;;6.17;;
17024;SDS011;8629;42.496;25.620;2023-04-03T06:02:08;15.27;;;8.60;;
17024;SDS011;8629;42.496;25.620;2023-04-03T06:04:36;9.20;;;5.33;;
17024;SDS011;8629;42.496;25.620;2023-04-03T06:07:05;2.90;;;2.43;;
17024;SDS011;8629;42.496;25.620;2023-04-03T06:09:32;4.20;;;3.80;;
17024;SDS011;8629;42.496;25.620;2023-04-03T06:11:59;12.83;;;7.63;;
17024;SDS011;8629;42.496;25.620;2023-04-03T06:14:26;11.93;;;7.30;;
17024;SDS011;8629;42.496;25.620;2023-04-03T06:16:53;6.13;;;4.97;;
17024;SDS011;8629;42.496;25.620;2023-04-03T06:19:22;35.07;;;19.30;;
17024;SDS011;8629;42.496;25.620;2023-04-03T06:21:49;7.03;;;5.00;;
17024;SDS011;8629;42.496;25.620;2023-04-03T06:24:17;24.70;;;15.63;;
17024;SDS011;8629;42.496;25.620;2023-04-03T06:26:45;80.43;;;39.83;;
17024;SDS011;8629;42.496;25.620;2023-04-03T06:29:11;23.60;;;13.13;;
17024;SDS011;8629;42.496;25.620;2023-04-03T06:31:38;9.93;;;5.40;;
17024;SDS011;8629;42.496;25.620;2023-04-03T06:34:05;11.30;;;5.33;;
17024;SDS011;8629;42.496;25.620;2023-04-03T06:36:32;5.27;;;3.60;;
17024;SDS011;8629;42.496;25.620;2023-04-03T06:38:59;2.07;;;1.90;;
17024;SDS011;8629;42.496;25.620;2023-04-03T06:41:27;2.57;;;2.37;;
17024;SDS011;8629;42.496;25.620;2023-04-03T06:43:54;2.43;;;1.87;;
17024;SDS011;8629;42.496;25.620;2023-04-03T06:46:23;1.40;;;1.30;;
17024;SDS011;8629;42.496;25.620;2023-04-03T06:48:51;1.87;;;1.73;;
17024;SDS011;8629;42.496;25.620;2023-04-03T06:51:19;3.00;;;1.83;;
17024;SDS011;8629;42.496;25.620;2023-04-03T06:53:47;2.20;;;2.00;;
17024;SDS011;8629;42.496;25.620;2023-04-03T06:56:14;1.87;;;1.10;;
17024;SDS011;8629;42.496;25.620;2023-04-03T06:58:43;1.30;;;1.20;;
17024;SDS011;8629;42.496;25.620;2023-04-03T07:01:10;1.10;;;1.00;;
17024;SDS011;8629;42.496;25.620;2023-04-03T07:03:39;1.60;;;1.30;;
17024;SDS011;8629;42.496;25.620;2023-04-03T07:06:07;1.53;;;1.30;;
17024;SDS011;8629;42.496;25.620;2023-04-03T07:08:36;1.27;;;1.17;;
17024;SDS011;8629;42.496;25.620;2023-04-03T07:11:02;4.10;;;1.03;;
17024;SDS011;8629;42.496;25.620;2023-04-03T07:13:29;1.03;;;0.93;;
17024;SDS011;8629;42.496;25.620;2023-04-03T07:15:58;1.27;;;1.20;;
17024;SDS011;8629;42.496;25.620;2023-04-03T07:18:25;2.93;;;1.40;;
17024;SDS011;8629;42.496;25.620;2023-04-03T07:20:52;0.90;;;0.90;;
17024;SDS011;8629;42.496;25.620;2023-04-03T07:23:19;1.30;;;1.00;;
17024;SDS011;8629;42.496;25.620;2023-04-03T07:25:46;1.97;;;1.27;;
17024;SDS011;8629;42.496;25.620;2023-04-03T07:28:15;1.83;;;1.57;;
17024;SDS011;8629;42.496;25.620;2023-04-03T07:30:43;1.40;;;1.30;;
17024;SDS011;8629;42.496;25.620;2023-04-03T07:33:12;1.10;;;1.10;;
17024;SDS011;8629;42.496;25.620;2023-04-03T07:35:40;1.00;;;1.00;;
17024;SDS011;8629;42.496;25.620;2023-04-03T07:38:07;3.47;;;3.17;;
17024;SDS011;8629;42.496;25.620;2023-04-03T07:40:34;4.33;;;2.00;;
17024;SDS011;8629;42.496;25.620;2023-04-03T07:43:02;1.80;;;1.50;;
17024;SDS011;8629;42.496;25.620;2023-04-03T07:45:31;1.47;;;1.20;;
17024;SDS011;8629;42.496;25.620;2023-04-03T07:47:58;1.17;;;1.00;;
17024;SDS011;8629;42.496;25.620;2023-04-03T07:50:28;1.03;;;1.03;;
17024;SDS011;8629;42.496;25.620;2023-04-03T07:52:55;0.93;;;0.93;;
17024;SDS011;8629;42.496;25.620;2023-04-03T07:55:22;1.43;;;1.33;;
17024;SDS011;8629;42.496;25.620;2023-04-03T07:57:49;1.40;;;1.30;;
17024;SDS011;8629;42.496;25.620;2023-04-03T08:00:16;7.73;;;3.00;;
17024;SDS011;8629;42.496;25.620;2023-04-03T08:02:44;6.90;;;5.00;;
17024;SDS011;8629;42.496;25.620;2023-04-03T08:05:15;2.60;;;2.30;;
17024;SDS011;8629;42.496;25.620;2023-04-03T08:07:44;1.73;;;1.63;;
17024;SDS011;8629;42.496;25.620;2023-04-03T08:10:11;1.80;;;1.70;;
17024;SDS011;8629;42.496;25.620;2023-04-03T08:12:39;3.67;;;3.13;;
17024;SDS011;8629;42.496;25.620;2023-04-03T08:15:06;3.00;;;2.80;;
17024;SDS011;8629;42.496;25.620;2023-04-03T08:17:33;3.37;;;1.70;;
17024;SDS011;8629;42.496;25.620;2023-04-03T08:20:00;1.30;;;1.20;;
17024;SDS011;8629;42.496;25.620;2023-04-03T08:22:27;0.90;;;0.90;;
17024;SDS011;8629;42.496;25.620;2023-04-03T08:24:56;3.57;;;0.97;;
17024;SDS011;8629;42.496;25.620;2023-04-03T08:27:22;1.27;;;1.20;;
17024;SDS011;8629;42.496;25.620;2023-04-03T08:29:49;2.27;;;2.07;;
17024;SDS011;8629;42.496;25.620;2023-04-03T08:32:16;4.70;;;3.87;;
17024;SDS011;8629;42.496;25.620;2023-04-03T08:34:44;5.30;;;2.90;;
17024;SDS011;8629;42.496;25.620;2023-04-03T08:37:11;1.77;;;1.67;;
17024;SDS011;8629;42.496;25.620;2023-04-03T08:39:38;2.53;;;1.83;;
17024;SDS011;8629;42.496;25.620;2023-04-03T08:42:07;4.73;;;1.70;;
17024;SDS011;8629;42.496;25.620;2023-04-03T08:44:44;2.37;;;1.73;;
17024;SDS011;8629;42.496;25.620;2023-04-03T08:47:17;7.60;;;2.83;;
17024;SDS011;8629;42.496;25.620;2023-04-03T08:49:47;2.33;;;1.60;;
17024;SDS011;8629;42.496;25.620;2023-04-03T08:52:17;4.17;;;1.23;;
17024;SDS011;8629;42.496;25.620;2023-04-03T08:54:48;1.47;;;1.23;;
17024;SDS011;8629;42.496;25.620;2023-04-03T08:57:19;2.63;;;1.70;;
17024;SDS011;8629;42.496;25.620;2023-04-03T08:59:51;1.90;;;1.50;;
17024;SDS011;8629;42.496;25.620;2023-04-03T09:02:21;2.13;;;1.60;;
17024;SDS011;8629;42.496;25.620;2023-04-03T09:04:51;1.43;;;1.20;;
17024;SDS011;8629;42.496;25.620;2023-04-03T09:07:19;1.20;;;1.20;;
17024;SDS011;8629;42.496;25.620;2023-04-03T09:09:51;1.20;;;1.10;;
17024;SDS011;8629;42.496;25.620;2023-04-03T09:12:21;33.73;;;23.60;;
17024;SDS011;8629;42.496;25.620;2023-04-03T09:14:53;63.53;;;40.10;;
17024;SDS011;8629;42.496;25.620;2023-04-03T09:17:27;55.40;;;34.07;;
17024;SDS011;8629;42.496;25.620;2023-04-03T09:20:07;19.27;;;14.07;;
17024;SDS011;8629;42.496;25.620;2023-04-03T09:22:41;4.67;;;4.27;;
17024;SDS011;8629;42.496;25.620;2023-04-03T09:25:10;4.33;;;3.93;;
17024;SDS011;8629;42.496;25.620;2023-04-03T09:27:42;3.13;;;2.93;;
17024;SDS011;8629;42.496;25.620;2023-04-03T09:30:12;3.47;;;3.17;;
17024;SDS011;8629;42.496;25.620;2023-04-03T09:32:40;3.30;;;2.73;;
17024;SDS011;8629;42.496;25.620;2023-04-03T09:35:13;1.90;;;1.77;;
17024;SDS011;8629;42.496;25.620;2023-04-03T09:37:45;3.23;;;2.50;;
17024;SDS011;8629;42.496;25.620;2023-04-03T09:40:28;3.67;;;3.33;;
17024;SDS011;8629;42.496;25.620;2023-04-03T09:42:58;2.37;;;1.73;;
17024;SDS011;8629;42.496;25.620;2023-04-03T09:45:26;3.63;;;2.93;;
17024;SDS011;8629;42.496;25.620;2023-04-03T09:50:52;6.83;;;5.10;;
17024;SDS011;8629;42.496;25.620;2023-04-03T09:53:27;7.27;;;3.90;;
17024;SDS011;8629;42.496;25.620;2023-04-03T09:55:56;3.93;;;3.63;;
17024;SDS011;8629;42.496;25.620;2023-04-03T09:58:26;4.20;;;3.80;;
17024;SDS011;8629;42.496;25.620;2023-04-03T10:00:54;4.73;;;4.30;;
17024;SDS011;8629;42.496;25.620;2023-04-03T10:03:24;3.03;;;2.60;;
17024;SDS011;8629;42.496;25.620;2023-04-03T10:05:53;2.53;;;2.10;;
17024;SDS011;8629;42.496;25.620;2023-04-03T10:08:21;8.00;;;7.10;;
17024;SDS011;8629;42.496;25.620;2023-04-03T10:11:06;5.23;;;4.67;;
17024;SDS011;8629;42.496;25.620;2023-04-03T10:13:36;2.70;;;2.50;;
17024;SDS011;8629;42.496;25.620;2023-04-03T10:16:17;1.90;;;1.63;;
17024;SDS011;8629;42.496;25.620;2023-04-03T10:18:45;1.93;;;1.83;;
17024;SDS011;8629;42.496;25.620;2023-04-03T10:21:15;1.20;;;1.20;;
17024;SDS011;8629;42.496;25.620;2023-04-03T10:23:49;4.87;;;3.23;;
17024;SDS011;8629;42.496;25.620;2023-04-03T10:26:22;1.67;;;1.57;;
17024;SDS011;8629;42.496;25.620;2023-04-03T10:29:00;2.63;;;2.20;;
17024;SDS011;8629;42.496;25.620;2023-04-03T10:31:33;5.80;;;4.63;;
17024;SDS011;8629;42.496;25.620;2023-04-03T10:34:04;5.50;;;1.73;;
17024;SDS011;8629;42.496;25.620;2023-04-03T10:36:37;2.27;;;2.07;;
17024;SDS011;8629;42.496;25.620;2023-04-03T10:39:08;4.97;;;4.27;;
17024;SDS011;8629;42.496;25.620;2023-04-03T10:41:45;3.73;;;3.40;;
17024;SDS011;8629;42.496;25.620;2023-04-03T10:44:20;4.77;;;3.63;;
17024;SDS011;8629;42.496;25.620;2023-04-03T10:46:49;4.97;;;4.10;;
17024;SDS011;8629;42.496;25.620;2023-04-03T10:49:25;10.57;;;6.90;;
17024;SDS011;8629;42.496;25.620;2023-04-03T10:52:00;3.80;;;3.40;;
17024;SDS011;8629;42.496;25.620;2023-04-03T10:54:31;2.97;;;2.30;;
17024;SDS011;8629;42.496;25.620;2023-04-03T10:57:03;1.87;;;1.50;;
17024;SDS011;8629;42.496;25.620;2023-04-03T10:59:33;6.00;;;5.27;;
17024;SDS011;8629;42.496;25.620;2023-04-03T11:02:04;8.70;;;6.13;;
17024;SDS011;8629;42.496;25.620;2023-04-03T11:04:35;10.47;;;8.50;;
17024;SDS011;8629;42.496;25.620;2023-04-03T11:07:03;20.70;;;13.93;;
17024;SDS011;8629;42.496;25.620;2023-04-03T11:09:34;18.30;;;13.23;;
17024;SDS011;8629;42.496;25.620;2023-04-03T11:12:09;18.10;;;12.67;;
17024;SDS011;8629;42.496;25.620;2023-04-03T11:14:40;15.43;;;11.67;;
17024;SDS011;8629;42.496;25.620;2023-04-03T11:17:12;9.63;;;7.10;;
17024;SDS011;8629;42.496;25.620;2023-04-03T11:19:47;7.63;;;5.03;;
17024;SDS011;8629;42.496;25.620;2023-04-03T11:22:20;5.47;;;4.80;;
17024;SDS011;8629;42.496;25.620;2023-04-03T11:24:51;8.77;;;4.37;;
17024;SDS011;8629;42.496;25.620;2023-04-03T11:27:24;7.10;;;4.90;;
17024;SDS011;8629;42.496;25.620;2023-04-03T11:29:53;7.27;;;6.40;;
17024;SDS011;8629;42.496;25.620;2023-04-03T11:32:28;6.30;;;4.83;;
17024;SDS011;8629;42.496;25.620;2023-04-03T11:35:02;7.77;;;5.77;;
17024;SDS011;8629;42.496;25.620;2023-04-03T11:37:32;4.67;;;4.13;;
17024;SDS011;8629;42.496;25.620;2023-04-03T11:40:02;6.93;;;6.17;;
17024;SDS011;8629;42.496;25.620;2023-04-03T11:42:33;7.63;;;5.47;;
17024;SDS011;8629;42.496;25.620;2023-04-03T11:45:22;5.40;;;3.80;;
17024;SDS011;8629;42.496;25.620;2023-04-03T11:47:53;7.17;;;5.63;;
17024;SDS011;8629;42.496;25.620;2023-04-03T11:50:30;6.03;;;4.80;;
17024;SDS011;8629;42.496;25.620;2023-04-03T12:01:52;8.03;;;5.50;;
17024;SDS011;8629;42.496;25.620;2023-04-03T12:04:20;6.57;;;2.93;;
17024;SDS011;8629;42.496;25.620;2023-04-03T12:06:54;3.00;;;2.80;;
17024;SDS011;8629;42.496;25.620;2023-04-03T12:12:27;5.10;;;4.07;;
17024;SDS011;8629;42.496;25.620;2023-04-03T12:18:00;5.00;;;4.33;;
17024;SDS011;8629;42.496;25.620;2023-04-03T12:21:17;9.63;;;4.60;;
17024;SDS011;8629;42.496;25.620;2023-04-03T12:24:00;6.73;;;4.83;;
17024;SDS011;8629;42.496;25.620;2023-04-03T12:26:30;7.33;;;4.60;;
17024;SDS011;8629;42.496;25.620;2023-04-03T12:29:01;11.73;;;5.30;;
17024;SDS011;8629;42.496;25.620;2023-04-03T12:31:32;5.43;;;4.50;;
17024;SDS011;8629;42.496;25.620;2023-04-03T12:34:12;5.73;;;3.83;;
17024;SDS011;8629;42.496;25.620;2023-04-03T12:36:50;6.97;;;4.70;;
17024;SDS011;8629;42.496;25.620;2023-04-03T12:39:36;8.53;;;4.97;;
17024;SDS011;8629;42.496;25.620;2023-04-03T12:42:23;11.10;;;6.53;;
17024;SDS011;8629;42.496;25.620;2023-04-03T12:44:58;10.73;;;5.90;;
17024;SDS011;8629;42.496;25.620;2023-04-03T12:47:29;7.07;;;5.60;;
17024;SDS011;8629;42.496;25.620;2023-04-03T12:50:02;7.93;;;6.87;;
17024;SDS011;8629;42.496;25.620;2023-04-03T12:52:32;8.60;;;5.27;;
17024;SDS011;8629;42.496;25.620;2023-04-03T12:55:02;6.97;;;5.43;;
17024;SDS011;8629;42.496;25.620;2023-04-03T12:57:30;11.80;;;7.30;;
17024;SDS011;8629;42.496;25.620;2023-04-03T12:59:57;14.23;;;9.17;;
17024;SDS011;8629;42.496;25.620;2023-04-03T13:02:25;10.23;;;6.67;;
17024;SDS011;8629;42.496;25.620;2023-04-03T13:04:54;11.90;;;7.47;;
17024;SDS011;8629;42.496;25.620;2023-04-03T13:07:26;6.80;;;4.90;;
17024;SDS011;8629;42.496;25.620;2023-04-03T13:10:09;7.87;;;5.17;;
17024;SDS011;8629;42.496;25.620;2023-04-03T13:12:46;21.03;;;10.20;;
17024;SDS011;8629;42.496;25.620;2023-04-03T13:15:15;26.77;;;18.70;;
17024;SDS011;8629;42.496;25.620;2023-04-03T13:17:43;43.57;;;30.80;;
17024;SDS011;8629;42.496;25.620;2023-04-03T13:20:11;21.13;;;16.87;;
17024;SDS011;8629;42.496;25.620;2023-04-03T13:22:44;12.17;;;10.97;;
17024;SDS011;8629;42.496;25.620;2023-04-03T13:25:15;12.63;;;8.60;;
17024;SDS011;8629;42.496;25.620;2023-04-03T13:27:43;13.37;;;11.63;;
17024;SDS011;8629;42.496;25.620;2023-04-03T13:30:20;21.83;;;14.90;;
17024;SDS011;8629;42.496;25.620;2023-04-03T13:32:50;11.03;;;8.40;;
17024;SDS011;8629;42.496;25.620;2023-04-03T13:35:24;7.20;;;6.43;;
17024;SDS011;8629;42.496;25.620;2023-04-03T13:38:02;12.00;;;6.80;;
17024;SDS011;8629;42.496;25.620;2023-04-03T13:40:32;8.97;;;7.17;;
17024;SDS011;8629;42.496;25.620;2023-04-03T13:43:03;10.80;;;7.80;;
17024;SDS011;8629;42.496;25.620;2023-04-03T13:45:32;12.40;;;5.73;;
17024;SDS011;8629;42.496;25.620;2023-04-03T13:48:08;9.63;;;8.17;;
17024;SDS011;8629;42.496;25.620;2023-04-03T13:50:50;9.30;;;7.10;;
17024;SDS011;8629;42.496;25.620;2023-04-03T13:53:41;14.10;;;7.97;;
17024;SDS011;8629;42.496;25.620;2023-04-03T13:56:16;10.90;;;8.53;;
17024;SDS011;8629;42.496;25.620;2023-04-03T13:58:54;15.07;;;10.73;;
17024;SDS011;8629;42.496;25.620;2023-04-03T14:01:22;14.33;;;12.83;;
17024;SDS011;8629;42.496;25.620;2023-04-03T14:03:52;19.50;;;17.50;;
17024;SDS011;8629;42.496;25.620;2023-04-03T14:06:21;8.60;;;7.80;;
17024;SDS011;8629;42.496;25.620;2023-04-03T14:08:50;7.50;;;6.63;;
17024;SDS011;8629;42.496;25.620;2023-04-03T14:11:18;10.30;;;7.13;;
17024;SDS011;8629;42.496;25.620;2023-04-03T14:13:47;14.03;;;10.60;;
17024;SDS011;8629;42.496;25.620;2023-04-03T14:16:15;11.90;;;6.90;;
17024;SDS011;8629;42.496;25.620;2023-04-03T14:18:44;15.03;;;11.50;;
17024;SDS011;8629;42.496;25.620;2023-04-03T14:21:11;17.67;;;11.13;;
17024;SDS011;8629;42.496;25.620;2023-04-03T14:23:39;16.53;;;11.47;;
17024;SDS011;8629;42.496;25.620;2023-04-03T14:26:12;9.90;;;8.27;;
17024;SDS011;8629;42.496;25.620;2023-04-03T14:28:41;11.50;;;8.27;;
17024;SDS011;8629;42.496;25.620;2023-04-03T14:31:09;9.30;;;6.97;;
17024;SDS011;8629;42.496;25.620;2023-04-03T14:33:41;8.93;;;6.47;;
17024;SDS011;8629;42.496;25.620;2023-04-03T14:36:12;9.43;;;6.93;;
17024;SDS011;8629;42.496;25.620;2023-04-03T14:38:40;6.97;;;4.83;;
17024;SDS011;8629;42.496;25.620;2023-04-03T14:41:07;8.83;;;6.97;;
17024;SDS011;8629;42.496;25.620;2023-04-03T14:43:39;6.47;;;5.63;;
17024;SDS011;8629;42.496;25.620;2023-04-03T14:46:09;11.20;;;5.53;;
17024;SDS011;8629;42.496;25.620;2023-04-03T14:48:39;7.63;;;6.63;;
17024;SDS011;8629;42.496;25.620;2023-04-03T14:51:06;6.47;;;5.00;;
17024;SDS011;8629;42.496;25.620;2023-04-03T14:53:33;6.80;;;4.20;;
17024;SDS011;8629;42.496;25.620;2023-04-03T14:56:01;4.90;;;4.40;;
17024;SDS011;8629;42.496;25.620;2023-04-03T14:58:31;18.63;;;11.67;;
17024;SDS011;8629;42.496;25.620;2023-04-03T15:01:01;6.97;;;5.60;;
17024;SDS011;8629;42.496;25.620;2023-04-03T15:03:28;17.17;;;9.90;;
17024;SDS011;8629;42.496;25.620;2023-04-03T15:05:55;8.87;;;5.83;;
17024;SDS011;8629;42.496;25.620;2023-04-03T15:08:23;4.60;;;4.07;;
17024;SDS011;8629;42.496;25.620;2023-04-03T15:10:51;3.50;;;3.20;;
17024;SDS011;8629;42.496;25.620;2023-04-03T15:13:21;23.27;;;15.80;;
17024;SDS011;8629;42.496;25.620;2023-04-03T15:15:49;7.83;;;6.17;;